Time;durP1;ratioP1;P1;durP2;ratioP2;P2;SDS_P1;SDS_P2;PMS_P1;PMS_P2;Temp;Humidity;BMP_temperature;BMP_pressure;BME280_temperature;BME280_humidity;BME280_pressure;Samples;Min_cycle;Max_cycle;Signal;HPM_P1;HPM_P2
2021/08/18 00:01:10;;;;;;;4.90;3.43;;;14.30;99.90;;;;;;5208156;28;20515;-62
2021/08/18 00:03:42;;;;;;;6.67;3.47;;;14.30;99.90;;;;;;5207562;28;20322;-63
2021/08/18 00:06:14;;;;;;;7.30;3.40;;;14.20;99.90;;;;;;5190422;28;20228;-64
2021/08/18 00:08:46;;;;;;;6.13;3.33;;;14.20;99.90;;;;;;5207528;28;20233;-63
2021/08/18 00:11:18;;;;;;;9.23;3.67;;;14.10;99.90;;;;;;5208072;28;20240;-62
2021/08/18 00:13:51;;;;;;;5.83;3.80;;;14.10;99.90;;;;;;5208176;28;20313;-63
2021/08/18 00:16:25;;;;;;;9.23;4.27;;;14.10;99.90;;;;;;5210978;28;20213;-62
2021/08/18 00:18:57;;;;;;;7.03;4.27;;;14.10;99.90;;;;;;5194599;28;20329;-62
2021/08/18 00:21:31;;;;;;;9.63;4.03;;;14.10;99.90;;;;;;5194601;28;20275;-61
2021/08/18 00:24:04;;;;;;;8.57;4.40;;;14.00;99.90;;;;;;5211876;28;20568;-61
2021/08/18 00:26:36;;;;;;;10.77;4.53;;;14.00;99.90;;;;;;5211900;28;20646;-62
2021/08/18 00:29:08;;;;;;;8.53;4.30;;;14.00;99.90;;;;;;5211580;28;20378;-64
2021/08/18 00:31:40;;;;;;;7.03;4.23;;;14.00;99.90;;;;;;5210827;28;20202;-66
2021/08/18 00:34:12;;;;;;;7.03;4.37;;;14.00;99.90;;;;;;5211773;28;20230;-62
2021/08/18 00:36:44;;;;;;;10.63;4.30;;;14.00;99.90;;;;;;5211784;28;20190;-62
2021/08/18 00:39:15;;;;;;;8.30;4.33;;;14.00;99.90;;;;;;5211554;28;20245;-62
2021/08/18 00:41:50;;;;;;;7.73;4.50;;;14.00;99.90;;;;;;5211281;28;20571;-63
2021/08/18 00:44:22;;;;;;;9.40;4.87;;;14.00;99.90;;;;;;5210451;28;20238;-62
2021/08/18 00:46:58;;;;;;;9.67;4.50;;;14.00;99.90;;;;;;5210385;28;20595;-63
2021/08/18 00:49:32;;;;;;;10.53;4.47;;;14.00;99.90;;;;;;5211325;28;20240;-64
2021/08/18 00:52:05;;;;;;;8.60;3.90;;;14.00;99.90;;;;;;5211380;28;20578;-63
2021/08/18 00:54:53;;;;;;;7.13;3.73;;;14.00;99.90;;;;;;5210700;28;20326;-63
2021/08/18 00:57:25;;;;;;;8.03;3.73;;;14.00;99.90;;;;;;5211505;28;20217;-64
2021/08/18 00:59:58;;;;;;;9.07;3.43;;;14.00;99.90;;;;;;5210656;28;20249;-66
2021/08/18 01:02:31;;;;;;;6.60;3.63;;;13.90;99.90;;;;;;5210576;28;20206;-63
2021/08/18 01:05:14;;;;;;;7.93;3.37;;;13.90;99.90;;;;;;5210931;28;20248;-61
2021/08/18 01:07:47;;;;;;;6.13;3.00;;;13.90;99.90;;;;;;5209899;28;20193;-63
2021/08/18 01:10:23;;;;;;;7.87;2.90;;;13.90;99.90;;;;;;5209729;28;20240;-62
2021/08/18 01:12:58;;;;;;;6.23;2.87;;;13.80;99.90;;;;;;5210539;28;20202;-62
2021/08/18 01:15:31;;;;;;;5.23;2.77;;;13.80;99.90;;;;;;5209886;28;20240;-62
2021/08/18 01:18:05;;;;;;;4.07;2.40;;;13.80;99.90;;;;;;5209484;28;20210;-61
2021/08/18 01:20:42;;;;;;;5.73;2.53;;;13.70;99.90;;;;;;5226248;28;20292;-63
2021/08/18 01:23:15;;;;;;;3.37;2.07;;;13.70;99.90;;;;;;5210813;28;20619;-63
2021/08/18 01:25:47;;;;;;;3.90;2.20;;;13.70;99.90;;;;;;5226095;28;20685;-65
2021/08/18 01:28:25;;;;;;;4.17;1.70;;;13.70;99.90;;;;;;5209054;28;20221;-62
2021/08/18 01:30:59;;;;;;;5.57;2.07;;;13.60;99.90;;;;;;5210678;28;20698;-63
2021/08/18 01:33:31;;;;;;;2.40;1.50;;;13.60;99.90;;;;;;5209389;28;20206;-64
2021/08/18 01:36:03;;;;;;;3.23;1.70;;;13.60;99.90;;;;;;5210299;28;20240;-62
2021/08/18 01:38:35;;;;;;;4.33;1.80;;;13.70;99.90;;;;;;5210409;28;20213;-65
2021/08/18 01:41:12;;;;;;;4.47;1.57;;;13.60;99.90;;;;;;5225693;28;20246;-64
2021/08/18 01:43:46;;;;;;;2.30;1.67;;;13.60;99.90;;;;;;5210362;28;20196;-62
2021/08/18 01:46:18;;;;;;;3.53;1.40;;;13.60;99.90;;;;;;5210069;28;20242;-61
2021/08/18 01:48:51;;;;;;;1.67;1.27;;;13.60;99.90;;;;;;5209216;28;20202;-61
2021/08/18 01:51:26;;;;;;;2.50;1.23;;;13.60;99.90;;;;;;5210166;28;20327;-61
2021/08/18 01:54:00;;;;;;;2.47;1.20;;;13.50;99.90;;;;;;5208628;28;20205;-61
2021/08/18 01:56:34;;;;;;;2.30;1.63;;;13.50;99.90;;;;;;5225483;28;20661;-63
2021/08/18 01:59:06;;;;;;;1.47;0.80;;;13.50;99.90;;;;;;5209617;28;20593;-64
2021/08/18 02:01:38;;;;;;;2.07;1.30;;;13.40;99.90;;;;;;5192413;28;20654;-64
2021/08/18 02:04:12;;;;;;;5.17;1.30;;;13.50;99.90;;;;;;5208678;28;20241;-63
2021/08/18 02:06:44;;;;;;;3.83;1.50;;;13.50;99.90;;;;;;5208635;28;20321;-62
2021/08/18 02:09:16;;;;;;;5.80;2.20;;;13.50;99.90;;;;;;5192095;28;20634;-63
2021/08/18 02:11:51;;;;;;;4.10;2.00;;;13.50;99.90;;;;;;5209584;28;20241;-60
2021/08/18 02:14:23;;;;;;;5.90;2.97;;;13.50;99.90;;;;;;5208775;28;20201;-64
2021/08/18 02:16:55;;;;;;;6.73;2.73;;;13.50;99.90;;;;;;5209377;28;20241;-61
2021/08/18 02:19:27;;;;;;;7.73;3.10;;;13.60;99.90;;;;;;5209787;28;20202;-64
2021/08/18 02:22:01;;;;;;;7.83;3.23;;;13.60;99.90;;;;;;5209606;28;20241;-66
2021/08/18 02:24:36;;;;;;;10.40;3.93;;;13.60;99.90;;;;;;5209331;28;20225;-61
2021/08/18 02:27:08;;;;;;;5.80;3.47;;;13.60;99.90;;;;;;5209253;28;20241;-64
2021/08/18 02:29:40;;;;;;;11.67;4.00;;;13.60;99.90;;;;;;5209049;28;20206;-63
2021/08/18 02:32:12;;;;;;;11.43;4.07;;;13.60;99.90;;;;;;5208109;28;20654;-63
2021/08/18 02:34:46;;;;;;;7.97;3.80;;;13.60;99.90;;;;;;5224721;28;20217;-60
2021/08/18 02:37:20;;;;;;;9.10;3.90;;;13.70;99.90;;;;;;5209257;28;20234;-65
2021/08/18 02:39:55;;;;;;;10.93;3.90;;;13.70;99.90;;;;;;5208694;28;20217;-62
2021/08/18 02:42:27;;;;;;;9.73;4.10;;;13.80;99.90;;;;;;5207793;28;20241;-62
2021/08/18 02:45:02;;;;;;;12.03;4.23;;;13.80;99.90;;;;;;5208326;28;20287;-63
2021/08/18 02:47:34;;;;;;;7.00;4.30;;;13.90;99.90;;;;;;5209470;28;20217;-61
2021/08/18 02:50:11;;;;;;;10.63;4.30;;;13.90;99.90;;;;;;5209067;28;20213;-64
2021/08/18 02:52:43;;;;;;;9.20;3.87;;;14.00;99.90;;;;;;5224546;28;20221;-63
2021/08/18 02:55:15;;;;;;;12.60;4.47;;;14.00;99.90;;;;;;5209188;28;20206;-65
2021/08/18 02:57:49;;;;;;;8.47;3.53;;;14.10;99.90;;;;;;5224176;28;20234;-62
2021/08/18 03:00:23;;;;;;;9.53;4.63;;;14.10;99.90;;;;;;5208609;28;20245;-64
2021/08/18 03:02:55;;;;;;;8.30;4.03;;;14.20;99.90;;;;;;5224276;28;20385;-65
2021/08/18 03:05:32;;;;;;;8.30;3.93;;;14.20;99.90;;;;;;5208410;28;20280;-65
2021/08/18 03:08:04;;;;;;;8.33;4.30;;;14.20;99.90;;;;;;5207478;28;20684;-62
2021/08/18 03:10:36;;;;;;;8.33;3.80;;;14.30;99.90;;;;;;5208438;28;20198;-63
2021/08/18 03:13:08;;;;;;;6.90;3.70;;;14.30;99.90;;;;;;5207649;28;20241;-63
2021/08/18 03:15:40;;;;;;;5.83;3.40;;;14.30;99.90;;;;;;5224089;28;20215;-64
2021/08/18 03:18:12;;;;;;;8.57;3.97;;;14.30;99.90;;;;;;5208220;28;20229;-62
2021/08/18 03:20:47;;;;;;;12.77;4.37;;;14.40;99.90;;;;;;5208487;28;20206;-62
2021/08/18 03:23:18;;;;;;;7.57;3.60;;;14.40;99.90;;;;;;5207230;28;20238;-64
2021/08/18 03:25:51;;;;;;;8.47;4.03;;;14.30;99.90;;;;;;5207126;28;20240;-65
2021/08/18 03:28:25;;;;;;;7.10;3.57;;;14.30;99.90;;;;;;5207790;28;20206;-62
2021/08/18 03:31:00;;;;;;;8.77;3.70;;;14.30;99.90;;;;;;5208642;28;20530;-62
2021/08/18 03:33:32;;;;;;;10.47;4.00;;;14.30;99.90;;;;;;5207399;28;20230;-61
2021/08/18 03:36:05;;;;;;;11.00;3.60;;;14.30;99.90;;;;;;5208619;28;20221;-63
2021/08/18 03:38:36;;;;;;;8.03;3.73;;;14.20;99.90;;;;;;5207130;28;20234;-63
2021/08/18 03:41:09;;;;;;;10.60;3.77;;;14.20;99.90;;;;;;5208148;28;20214;-61
2021/08/18 03:43:41;;;;;;;11.40;4.10;;;14.20;99.90;;;;;;5208332;28;20245;-61
2021/08/18 03:46:16;;;;;;;10.27;3.60;;;14.20;99.90;;;;;;5190981;28;20559;-62
2021/08/18 03:48:53;;;;;;;8.97;3.93;;;14.20;99.90;;;;;;5207946;28;20233;-61
2021/08/18 03:51:27;;;;;;;7.60;3.40;;;14.30;99.90;;;;;;5210849;28;20189;-61
2021/08/18 03:54:01;;;;;;;8.83;3.63;;;14.30;99.90;;;;;;5212016;28;20229;-63
2021/08/18 03:56:35;;;;;;;8.97;3.80;;;14.40;99.90;;;;;;5211187;28;20209;-62
2021/08/18 03:59:07;;;;;;;8.90;3.43;;;14.50;99.90;;;;;;5227918;28;20318;-64
2021/08/18 04:01:40;;;;;;;7.93;3.57;;;14.50;99.90;;;;;;5212598;28;20233;-61
2021/08/18 04:04:12;;;;;;;7.93;3.40;;;14.60;99.90;;;;;;5212146;28;20666;-61
2021/08/18 04:06:44;;;;;;;11.57;3.53;;;14.60;99.90;;;;;;5211785;28;20240;-64
2021/08/18 04:09:16;;;;;;;11.10;3.43;;;14.70;99.90;;;;;;5211715;28;20225;-62
2021/08/18 04:11:48;;;;;;;7.60;3.30;;;14.70;99.90;;;;;;5211111;28;20210;-62
2021/08/18 04:14:22;;;;;;;10.77;3.20;;;14.80;99.90;;;;;;5212065;28;20202;-62
2021/08/18 04:16:55;;;;;;;10.50;3.70;;;14.80;99.90;;;;;;5210718;28;20560;-61
2021/08/18 04:19:26;;;;;;;7.40;3.40;;;14.90;99.90;;;;;;5211094;28;20226;-62
2021/08/18 04:21:58;;;;;;;9.13;3.27;;;14.90;99.90;;;;;;5210989;28;20206;-62
2021/08/18 04:24:30;;;;;;;10.47;3.43;;;14.90;99.90;;;;;;5211774;28;20202;-62
2021/08/18 04:27:03;;;;;;;10.13;3.27;;;14.90;99.90;;;;;;5210772;28;20300;-64
2021/08/18 04:29:35;;;;;;;10.37;3.47;;;14.90;99.90;;;;;;5194564;28;20653;-62
2021/08/18 04:32:07;;;;;;;8.10;3.20;;;14.90;99.90;;;;;;5211957;28;20220;-61
2021/08/18 04:34:42;;;;;;;10.73;3.67;;;14.90;99.90;;;;;;5194429;28;20638;-62
2021/08/18 04:37:16;;;;;;;9.13;3.47;;;14.90;99.90;;;;;;5210510;28;20201;-61
2021/08/18 04:39:48;;;;;;;10.73;3.60;;;14.90;99.90;;;;;;5210209;28;20299;-62
2021/08/18 04:42:20;;;;;;;11.00;3.83;;;14.90;99.90;;;;;;5211221;28;20206;-61
2021/08/18 04:44:52;;;;;;;11.17;3.20;;;14.90;99.90;;;;;;5211413;28;20206;-61
2021/08/18 04:47:24;;;;;;;10.77;3.87;;;15.00;99.90;;;;;;5211624;28;20517;-60
2021/08/18 04:49:56;;;;;;;8.87;3.53;;;15.00;99.90;;;;;;5211027;28;20222;-65
2021/08/18 04:52:29;;;;;;;7.97;3.40;;;15.00;99.90;;;;;;5211347;28;20202;-61
2021/08/18 04:55:01;;;;;;;10.20;3.43;;;15.00;99.90;;;;;;5194168;28;20565;-62
2021/08/18 04:57:33;;;;;;;11.87;3.13;;;15.00;99.90;;;;;;5211030;28;20555;-60
2021/08/18 05:00:07;;;;;;;6.90;3.37;;;15.10;99.90;;;;;;5211075;28;20234;-60
2021/08/18 05:02:39;;;;;;;11.10;3.63;;;15.00;99.90;;;;;;5210794;28;20599;-61
2021/08/18 05:05:11;;;;;;;9.73;4.07;;;15.00;99.90;;;;;;5226612;28;20688;-63
2021/08/18 05:07:43;;;;;;;8.53;3.80;;;15.00;99.90;;;;;;5210830;28;20221;-61
2021/08/18 05:10:15;;;;;;;11.67;3.87;;;15.00;99.90;;;;;;5210509;28;20198;-63
2021/08/18 05:12:47;;;;;;;12.33;4.17;;;15.00;99.90;;;;;;5177329;28;20213;-61
2021/08/18 05:15:20;;;;;;;10.43;3.40;;;15.00;99.90;;;;;;5210694;28;20213;-62
2021/08/18 05:17:54;;;;;;;7.50;3.30;;;14.90;99.90;;;;;;5210510;28;20206;-62
2021/08/18 05:20:25;;;;;;;8.53;3.33;;;14.80;99.90;;;;;;5193612;28;20206;-62
2021/08/18 05:22:58;;;;;;;8.63;3.33;;;14.80;99.90;;;;;;5209372;28;20213;-63
2021/08/18 05:25:30;;;;;;;7.40;3.37;;;14.70;99.90;;;;;;5210457;28;20691;-61
2021/08/18 05:28:05;;;;;;;14.40;4.07;;;14.70;99.90;;;;;;5210708;28;20210;-65
2021/08/18 05:30:40;;;;;;;7.67;3.83;;;14.60;99.90;;;;;;5210658;28;20237;-62
2021/08/18 05:33:11;;;;;;;10.27;4.03;;;14.60;99.90;;;;;;5210034;28;20263;-62
2021/08/18 05:35:44;;;;;;;7.53;3.53;;;14.60;99.90;;;;;;5193130;28;20238;-61
2021/08/18 05:38:16;;;;;;;10.80;4.23;;;14.60;99.90;;;;;;5209499;28;20349;-59
2021/08/18 05:40:48;;;;;;;9.23;4.00;;;14.60;99.90;;;;;;5209452;28;20240;-60
2021/08/18 05:43:19;;;;;;;8.60;3.80;;;14.50;99.90;;;;;;5226032;28;20210;-60
2021/08/18 05:45:51;;;;;;;10.37;3.80;;;14.50;99.90;;;;;;5210540;28;20597;-58
2021/08/18 05:48:26;;;;;;;11.13;4.50;;;14.50;99.90;;;;;;5209227;28;20541;-50
2021/08/18 05:50:58;;;;;;;8.33;3.87;;;14.50;99.90;;;;;;5209119;28;20229;-61
2021/08/18 05:53:30;;;;;;;13.63;4.77;;;14.60;99.90;;;;;;5209868;28;20206;-59
2021/08/18 05:56:02;;;;;;;10.50;3.70;;;14.60;99.90;;;;;;5209298;28;20206;-60
2021/08/18 05:58:34;;;;;;;7.20;3.93;;;14.60;99.90;;;;;;5209182;28;20206;-58
2021/08/18 06:01:06;;;;;;;8.20;3.97;;;14.70;99.90;;;;;;5209588;28;20245;-58
2021/08/18 06:03:40;;;;;;;11.87;4.10;;;14.70;99.90;;;;;;5209013;28;20202;-60
2021/08/18 06:06:12;;;;;;;13.93;4.60;;;14.70;99.90;;;;;;5209512;28;20238;-57
2021/08/18 06:08:44;;;;;;;12.70;4.83;;;14.80;99.90;;;;;;5209596;28;20206;-61
2021/08/18 06:11:16;;;;;;;8.03;4.10;;;14.80;99.90;;;;;;5208620;28;20202;-57
2021/08/18 06:13:48;;;;;;;9.33;3.73;;;14.80;99.90;;;;;;5191590;28;20206;-58
2021/08/18 06:16:20;;;;;;;13.37;4.20;;;14.80;99.90;;;;;;5209545;28;20221;-60
2021/08/18 06:18:54;;;;;;;9.03;4.10;;;14.90;99.90;;;;;;5208454;28;20213;-62
2021/08/18 06:21:26;;;;;;;10.27;4.30;;;14.90;99.90;;;;;;5208386;28;20210;-61
2021/08/18 06:24:07;;;;;;;12.10;4.37;;;14.90;99.90;;;;;;5207468;28;20311;-63
2021/08/18 06:26:39;;;;;;;14.00;4.03;;;14.90;99.90;;;;;;5192103;28;20260;-59
2021/08/18 06:29:11;;;;;;;10.53;4.53;;;15.00;99.90;;;;;;5208010;28;20209;-59
2021/08/18 06:31:43;;;;;;;8.50;3.67;;;15.00;99.90;;;;;;5192466;28;20670;-60
2021/08/18 06:34:18;;;;;;;7.80;4.00;;;15.10;99.90;;;;;;5208789;28;20218;-57
2021/08/18 06:36:52;;;;;;;8.97;4.00;;;15.20;99.90;;;;;;5208156;28;20230;-57
2021/08/18 06:39:40;;;;;;;11.37;4.40;;;15.30;99.90;;;;;;5222757;28;20203;-64
2021/08/18 06:42:12;;;;;;;12.37;4.20;;;15.40;99.90;;;;;;5209089;28;20217;-58
2021/08/18 06:44:48;;;;;;;8.97;4.07;;;15.40;99.90;;;;;;5208990;28;20523;-60
2021/08/18 06:47:22;;;;;;;9.93;4.17;;;15.40;99.90;;;;;;5209281;28;20584;-56
2021/08/18 06:49:54;;;;;;;8.33;3.90;;;15.50;99.90;;;;;;5209852;28;20524;-57
2021/08/18 06:52:28;;;;;;;9.37;3.87;;;15.60;99.90;;;;;;5226913;28;20229;-61
2021/08/18 06:55:03;;;;;;;6.23;3.67;;;15.70;99.90;;;;;;5228806;28;20226;-59
2021/08/18 06:57:35;;;;;;;11.33;4.10;;;15.70;99.90;;;;;;5227784;28;20523;-56
2021/08/18 07:00:09;;;;;;;7.17;3.80;;;15.70;99.90;;;;;;5211689;28;20241;-59
2021/08/18 07:02:46;;;;;;;11.13;3.63;;;15.70;99.90;;;;;;5229355;28;20241;-61
2021/08/18 07:05:20;;;;;;;9.47;3.53;;;15.80;99.90;;;;;;5228259;28;20193;-54
2021/08/18 07:07:52;;;;;;;7.53;3.80;;;15.80;99.90;;;;;;5222948;28;20194;-49
2021/08/18 07:10:24;;;;;;;9.03;4.07;;;15.80;99.90;;;;;;5207685;28;20275;-53
2021/08/18 07:12:59;;;;;;;10.80;4.13;;;15.80;99.90;;;;;;5195933;28;20218;-55
2021/08/18 07:15:33;;;;;;;9.20;4.30;;;15.80;99.90;;;;;;5221042;28;20193;-60
2021/08/18 07:18:08;;;;;;;7.37;3.67;;;15.80;99.90;;;;;;5227534;28;20708;-55
2021/08/18 07:20:40;;;;;;;10.97;4.03;;;15.80;99.90;;;;;;5229165;28;20209;-59
2021/08/18 07:23:12;;;;;;;8.80;3.90;;;15.80;99.90;;;;;;5227526;28;20225;-57
2021/08/18 07:25:46;;;;;;;10.03;4.27;;;15.80;99.90;;;;;;5227378;28;20197;-58
2021/08/18 07:28:18;;;;;;;8.70;4.03;;;15.80;99.90;;;;;;5228345;28;20236;-58
2021/08/18 07:30:51;;;;;;;7.07;4.20;;;15.80;99.90;;;;;;5223604;28;20546;-55
2021/08/18 07:33:25;;;;;;;9.73;4.63;;;15.90;99.90;;;;;;5223229;28;20251;-61
2021/08/18 07:35:57;;;;;;;12.20;4.23;;;15.90;99.90;;;;;;5227090;28;20212;-64
2021/08/18 07:38:31;;;;;;;10.23;4.07;;;16.00;99.90;;;;;;5224792;28;20225;-61
2021/08/18 07:41:05;;;;;;;10.93;4.70;;;16.00;99.90;;;;;;5226413;28;20200;-57
2021/08/18 07:43:37;;;;;;;8.97;4.23;;;16.10;99.90;;;;;;5211304;28;20560;-62
2021/08/18 07:46:10;;;;;;;10.93;4.47;;;16.10;99.90;;;;;;5226713;28;20217;-58
2021/08/18 07:48:42;;;;;;;10.90;4.07;;;16.10;99.90;;;;;;5226688;28;20225;-51
2021/08/18 07:51:15;;;;;;;10.93;4.77;;;16.20;99.90;;;;;;5216169;28;20236;-54
2021/08/18 07:53:46;;;;;;;7.33;4.03;;;16.20;99.90;;;;;;5227486;28;20231;-52
2021/08/18 07:56:19;;;;;;;16.53;5.77;;;16.20;99.90;;;;;;5225461;28;20233;-54
2021/08/18 07:58:53;;;;;;;11.27;4.10;;;16.10;99.90;;;;;;5220083;28;20253;-57
2021/08/18 08:01:42;;;;;;;7.83;4.10;;;16.20;99.90;;;;;;5216950;28;20210;-55
2021/08/18 08:04:14;;;;;;;7.40;4.07;;;16.20;99.90;;;;;;5226193;28;20243;-59
2021/08/18 08:06:47;;;;;;;10.30;4.40;;;16.30;99.90;;;;;;5227011;28;20227;-57
2021/08/18 08:09:19;;;;;;;9.37;4.23;;;16.30;99.90;;;;;;5226871;28;20240;-54
2021/08/18 08:11:53;;;;;;;10.20;3.87;;;16.30;99.90;;;;;;5227845;28;20201;-53
2021/08/18 08:14:25;;;;;;;9.97;4.13;;;16.30;99.90;;;;;;5227802;28;20221;-59
2021/08/18 08:17:00;;;;;;;8.00;4.23;;;16.20;99.90;;;;;;5228657;28;20578;-53
2021/08/18 08:19:32;;;;;;;7.37;3.73;;;16.20;99.90;;;;;;5227545;28;20216;-59
2021/08/18 08:22:05;;;;;;;9.73;4.43;;;16.20;99.90;;;;;;5227506;28;20509;-58
2021/08/18 08:24:37;;;;;;;6.37;3.80;;;16.20;99.90;;;;;;5227842;28;20241;-57
2021/08/18 08:27:12;;;;;;;8.20;4.03;;;16.20;99.90;;;;;;5223482;28;20341;-55
2021/08/18 08:29:44;;;;;;;8.13;4.43;;;16.10;99.90;;;;;;5207390;28;20197;-56
2021/08/18 08:32:16;;;;;;;8.80;4.10;;;16.10;99.90;;;;;;5207324;28;20197;-54
2021/08/18 08:34:47;;;;;;;6.40;3.40;;;16.10;99.90;;;;;;5206627;28;20202;-52
2021/08/18 08:37:20;;;;;;;11.20;4.03;;;16.20;99.90;;;;;;5228969;28;20209;-54
2021/08/18 08:39:52;;;;;;;8.53;4.27;;;16.30;99.90;;;;;;5231809;28;20209;-52
2021/08/18 08:42:24;;;;;;;8.60;3.90;;;16.40;99.90;;;;;;5230656;28;20209;-57
2021/08/18 08:45:00;;;;;;;7.70;3.70;;;16.50;99.90;;;;;;5231647;28;20220;-59
2021/08/18 08:47:35;;;;;;;9.57;3.93;;;16.60;99.90;;;;;;5229377;28;20586;-61
2021/08/18 08:50:10;;;;;;;9.47;3.73;;;16.70;99.90;;;;;;5230967;28;20507;-61
2021/08/18 08:52:42;;;;;;;11.63;4.10;;;16.70;99.90;;;;;;5230834;28;20505;-58
2021/08/18 08:55:14;;;;;;;8.25;3.83;;;16.60;99.90;;;;;;5231461;28;20630;-54
2021/08/18 08:57:54;;;;;;;9.13;4.23;;;16.60;99.90;;;;;;5223509;28;20264;-55
2021/08/18 09:00:26;;;;;;;8.93;4.20;;;16.60;99.90;;;;;;5229788;28;20232;-56
2021/08/18 09:03:10;;;;;;;8.10;3.90;;;16.50;99.90;;;;;;5231041;28;20202;-56
2021/08/18 09:05:46;;;;;;;10.73;4.30;;;16.50;99.90;;;;;;5223859;28;20309;-54
2021/08/18 09:08:20;;;;;;;8.10;4.43;;;16.60;99.90;;;;;;5229674;28;20250;-53
2021/08/18 09:11:08;;;;;;;11.63;4.43;;;16.70;99.90;;;;;;5231296;28;20212;-61
2021/08/18 09:13:54;;;;;;;12.85;4.00;;;16.90;99.90;;;;;;5223891;28;20202;-57
2021/08/18 09:16:33;;;;;;;14.77;4.13;;;16.90;99.90;;;;;;5230715;28;20216;-61
2021/08/18 09:19:13;;;;;;;6.88;3.70;;;16.90;99.90;;;;;;5228415;28;20235;-55
2021/08/18 09:21:45;;;;;;;10.25;4.30;;;16.90;99.90;;;;;;5225185;28;20198;-61
2021/08/18 09:24:25;;;;;;;9.50;4.33;;;17.00;99.90;;;;;;5219552;28;20229;-54
2021/08/18 09:27:08;;;;;;;8.27;3.70;;;17.10;99.90;;;;;;5230746;28;20209;-53
2021/08/18 09:29:45;;;;;;;10.47;4.07;;;17.30;99.90;;;;;;5229398;28;20773;-62
2021/08/18 09:32:31;;;;;;;11.52;4.30;;;17.40;99.90;;;;;;5231391;28;20593;-57
2021/08/18 09:35:13;;;;;;;9.63;4.27;;;17.40;99.90;;;;;;5230737;28;20240;-56
2021/08/18 09:37:56;;;;;;;11.73;3.80;;;17.30;99.90;;;;;;5229818;28;20208;-58
2021/08/18 09:40:28;;;;;;;11.10;4.18;;;17.30;99.90;;;;;;5231330;28;20201;-56
2021/08/18 09:43:15;;;;;;;11.00;4.40;;;17.30;99.90;;;;;;5230622;28;20228;-58
2021/08/18 09:45:55;;;;;;;8.82;3.92;;;17.30;99.90;;;;;;5229445;28;20216;-58
2021/08/18 09:48:32;;;;;;;12.60;4.67;;;17.30;99.90;;;;;;5227980;28;20291;-57
2021/08/18 09:51:11;;;;;;;12.48;4.50;;;17.30;99.90;;;;;;5209296;28;20194;-54
2021/08/18 09:53:44;;;;;;;9.63;4.37;;;17.40;99.90;;;;;;5211073;28;20209;-57
2021/08/18 09:56:16;;;;;;;10.53;4.10;;;17.30;99.90;;;;;;5209385;28;20615;-56
2021/08/18 09:58:57;;;;;;;10.65;3.70;;;17.30;99.90;;;;;;5210980;28;20206;-57
2021/08/18 10:01:34;;;;;;;10.55;4.10;;;17.40;99.90;;;;;;5216116;28;20574;-58
2021/08/18 10:04:09;;;;;;;7.88;3.90;;;17.50;99.90;;;;;;5214522;28;20269;-58
2021/08/18 10:06:42;;;;;;;10.88;4.00;;;17.70;99.90;;;;;;5219558;28;20213;-54
2021/08/18 10:09:14;;;;;;;10.00;3.67;;;17.90;99.90;;;;;;5221446;28;20205;-56
2021/08/18 10:11:46;;;;;;;9.30;4.50;;;18.10;99.90;;;;;;5222874;28;20292;-56
2021/08/18 10:14:21;;;;;;;8.35;3.97;;;18.10;99.90;;;;;;5218389;28;20681;-59
2021/08/18 10:16:53;;;;;;;7.87;3.97;;;18.20;99.90;;;;;;5226401;28;20505;-56
2021/08/18 10:19:27;;;;;;;7.47;4.18;;;18.20;99.90;;;;;;5220022;28;20216;-62
2021/08/18 10:22:00;;;;;;;8.65;3.65;;;18.20;99.90;;;;;;5220300;28;20202;-58
2021/08/18 10:24:40;;;;;;;10.07;3.97;;;18.20;99.90;;;;;;5218576;28;20198;-55
2021/08/18 10:27:11;;;;;;;6.90;4.07;;;18.20;99.90;;;;;;5221269;28;20218;-56
2021/08/18 10:29:48;;;;;;;9.35;4.03;;;18.30;99.90;;;;;;5217926;28;20208;-56
2021/08/18 10:32:35;;;;;;;9.43;3.95;;;18.40;99.90;;;;;;5218988;28;20197;-58
2021/08/18 10:35:36;;;;;;;8.23;3.95;;;18.70;99.90;;;;;;5217152;28;20202;-57
2021/08/18 10:38:34;;;;;;;9.77;3.90;;;19.00;99.90;;;;;;5218016;28;20216;-59
2021/08/18 10:41:07;;;;;;;9.45;3.63;;;19.20;99.90;;;;;;5216231;28;20237;-60
2021/08/18 10:43:50;;;;;;;9.05;3.70;;;19.50;99.90;;;;;;5219479;28;20201;-55
2021/08/18 10:46:23;;;;;;;10.60;3.75;;;19.80;99.90;;;;;;5213609;28;20237;-61
2021/08/18 10:48:55;;;;;;;9.23;3.67;;;19.90;99.90;;;;;;5216882;28;20225;-55
2021/08/18 10:51:42;;;;;;;8.90;3.55;;;20.00;99.90;;;;;;5229454;28;20255;-61
2021/08/18 10:54:29;;;;;;;8.55;3.88;;;20.10;99.90;;;;;;5227856;28;20209;-54
2021/08/18 10:57:04;;;;;;;8.93;3.85;;;20.00;99.90;;;;;;5227889;28;20229;-52
2021/08/18 10:59:36;;;;;;;9.20;3.90;;;19.90;99.90;;;;;;5227029;28;20236;-59
2021/08/18 11:02:29;;;;;;;11.02;3.70;;;19.80;99.90;;;;;;5227692;28;20209;-54
2021/08/18 11:05:12;;;;;;;7.68;3.42;;;20.00;99.90;;;;;;5226873;28;20260;-52
2021/08/18 11:08:00;;;;;;;8.65;3.47;;;20.20;99.90;;;;;;5225122;28;20240;-53
2021/08/18 11:10:56;;;;;;;5.75;3.38;;;20.10;99.90;;;;;;5228085;28;20605;-56
2021/08/18 11:13:40;;;;;;;13.05;3.35;;;20.20;99.90;;;;;;5210294;28;20222;-53
2021/08/18 11:16:23;;;;;;;6.80;3.20;;;20.00;99.90;;;;;;5221247;28;20231;-51
2021/08/18 11:18:57;;;;;;;8.80;3.63;;;19.90;99.90;;;;;;5219862;28;20214;-55
2021/08/18 11:21:37;;;;;;;8.45;3.40;;;19.70;99.90;;;;;;5222571;28;20202;-52
2021/08/18 11:24:13;;;;;;;7.25;2.85;;;19.60;99.90;;;;;;5228988;28;20552;-54
2021/08/18 11:26:49;;;;;;;8.48;3.50;;;19.70;99.90;;;;;;5216124;28;20194;-53
2021/08/18 11:29:24;;;;;;;6.20;3.40;;;19.70;99.90;;;;;;5214294;28;20218;-59
2021/08/18 11:31:57;;;;;;;4.75;2.58;;;19.60;99.90;;;;;;5216521;28;20494;-54
2021/08/18 11:34:37;;;;;;;10.23;3.50;;;19.70;99.90;;;;;;5193959;28;20688;-53
2021/08/18 11:37:12;;;;;;;7.90;3.58;;;19.90;99.90;;;;;;5225641;28;20575;-58
2021/08/18 11:39:48;;;;;;;7.90;3.35;;;20.00;99.90;;;;;;5221520;28;20233;-54
2021/08/18 11:42:21;;;;;;;6.38;2.90;;;20.00;99.90;;;;;;5206975;28;20552;-56
2021/08/18 11:45:16;;;;;;;8.15;3.00;;;19.90;99.90;;;;;;5226083;28;20248;-55
2021/08/18 11:47:48;;;;;;;8.68;3.20;;;19.80;99.90;;;;;;5228454;28;20225;-50
2021/08/18 11:50:22;;;;;;;8.45;3.10;;;19.90;99.90;;;;;;5228326;28;20568;-53
2021/08/18 11:53:06;;;;;;;4.45;2.38;;;19.70;99.90;;;;;;5227453;28;20202;-52
2021/08/18 11:55:40;;;;;;;8.00;3.03;;;19.60;99.90;;;;;;5218013;28;20213;-60
2021/08/18 11:58:12;;;;;;;10.98;3.55;;;19.60;99.90;;;;;;5200858;28;20272;-53
2021/08/18 12:00:45;;;;;;;5.55;2.70;;;19.70;99.90;;;;;;5209910;28;20556;-60
2021/08/18 12:03:23;;;;;;;7.25;2.72;;;19.70;99.90;;;;;;5207499;28;20311;-58
2021/08/18 12:06:03;;;;;;;9.52;3.03;;;19.70;99.90;;;;;;5209841;28;20226;-54
2021/08/18 12:08:41;;;;;;;6.28;2.83;;;19.70;99.90;;;;;;5221778;28;20220;-53
2021/08/18 12:11:12;;;;;;;8.50;3.20;;;19.70;99.90;;;;;;5223143;28;20553;-56
2021/08/18 12:13:47;;;;;;;8.40;3.20;;;19.70;99.90;;;;;;5228251;28;20197;-55
2021/08/18 12:16:30;;;;;;;6.03;2.95;;;19.70;99.90;;;;;;5222311;28;20589;-53
2021/08/18 12:19:21;;;;;;;7.60;2.88;;;19.80;99.90;;;;;;5226173;28;20216;-60
2021/08/18 12:22:05;;;;;;;7.22;3.05;;;19.90;99.90;;;;;;5223965;28;20237;-51
2021/08/18 12:24:40;;;;;;;6.10;2.92;;;20.00;99.90;;;;;;5223554;28;20193;-50
2021/08/18 12:27:14;;;;;;;5.90;2.72;;;20.00;99.90;;;;;;5226998;28;20221;-56
2021/08/18 12:30:00;;;;;;;5.60;3.03;;;20.10;99.90;;;;;;5224262;28;20526;-57
2021/08/18 12:32:33;;;;;;;4.68;2.67;;;20.00;99.90;;;;;;5221479;28;20222;-53
2021/08/18 12:35:12;;;;;;;6.00;2.50;;;19.90;99.90;;;;;;5224716;28;20643;-51
2021/08/18 12:37:53;;;;;;;6.40;2.95;;;20.00;99.90;;;;;;5227633;28;20240;-55
2021/08/18 12:40:29;;;;;;;5.90;3.08;;;20.10;99.90;;;;;;5219957;28;20212;-56
2021/08/18 12:43:06;;;;;;;6.38;2.90;;;20.00;99.90;;;;;;5222155;28;20231;-52
2021/08/18 12:45:38;;;;;;;5.38;2.80;;;19.90;99.90;;;;;;5219397;28;20198;-62
2021/08/18 12:48:22;;;;;;;7.70;3.22;;;19.80;99.90;;;;;;5220630;28;20248;-54
2021/08/18 12:51:09;;;;;;;6.13;2.90;;;19.70;99.90;;;;;;5212449;28;20195;-60
2021/08/18 12:53:41;;;;;;;7.63;2.88;;;19.60;99.90;;;;;;5223167;28;20699;-60
2021/08/18 12:56:13;;;;;;;7.30;2.90;;;19.60;99.90;;;;;;5228517;28;20205;-60
2021/08/18 12:58:49;;;;;;;6.55;2.80;;;19.60;99.90;;;;;;5231268;28;20233;-59
2021/08/18 13:01:21;;;;;;;4.93;2.75;;;19.70;99.90;;;;;;5224748;28;20221;-60
2021/08/18 13:03:53;;;;;;;4.18;2.72;;;19.80;99.90;;;;;;5210458;28;20252;-62
2021/08/18 13:06:28;;;;;;;6.93;2.92;;;19.90;99.90;;;;;;5210714;28;20210;-62
2021/08/18 13:09:00;;;;;;;7.22;2.55;;;20.10;99.90;;;;;;5212675;28;20230;-61
2021/08/18 13:11:32;;;;;;;5.95;3.15;;;20.30;99.90;;;;;;5231371;28;20537;-65
2021/08/18 13:14:04;;;;;;;8.30;2.88;;;20.50;99.90;;;;;;5213177;28;20234;-54
2021/08/18 13:16:37;;;;;;;6.80;2.80;;;20.40;99.90;;;;;;5211541;28;20202;-51
2021/08/18 13:19:09;;;;;;;6.10;2.60;;;20.50;99.90;;;;;;5211034;28;20673;-54
2021/08/18 13:21:42;;;;;;;8.10;3.25;;;20.50;99.90;;;;;;5210943;28;20221;-58